createdAt,value
2019-06-20T00:01:33.595Z,152.87
2019-06-20T00:04:00.824Z,154.47
2019-06-20T00:06:27.959Z,152.85
2019-06-20T00:08:55.293Z,154.80
2019-06-20T00:11:22.352Z,152.78
2019-06-20T00:13:49.427Z,152.40
2019-06-20T00:16:16.494Z,151.25
2019-06-20T00:18:43.496Z,151.45
2019-06-20T00:21:10.574Z,149.80
2019-06-20T00:23:37.657Z,150.78
2019-06-20T00:26:04.771Z,150.03
2019-06-20T00:28:31.871Z,148.70
2019-06-20T00:30:59.329Z,150.55
2019-06-20T00:33:26.403Z,148.60
2019-06-20T00:35:53.554Z,148.13
2019-06-20T00:38:20.721Z,147.37
2019-06-20T00:40:47.750Z,147.98
2019-06-20T00:43:17.980Z,146.93
2019-06-20T00:45:43.759Z,145.97
2019-06-20T00:48:11.993Z,147.57
2019-06-20T00:50:39.114Z,146.22
2019-06-20T00:53:08.650Z,147.00
2019-06-20T00:55:36.886Z,146.43
2019-06-20T00:58:03.983Z,148.02
2019-06-20T01:00:31.033Z,146.28
2019-06-20T01:02:59.676Z,146.57
2019-06-20T01:05:26.752Z,148.65
2019-06-20T01:07:54.451Z,145.72
2019-06-20T01:10:37.668Z,149.77
2019-06-20T01:13:05.290Z,146.98
2019-06-20T01:15:34.617Z,148.30
2019-06-20T01:18:01.983Z,148.65
2019-06-20T01:20:29.053Z,148.80
2019-06-20T01:22:56.120Z,148.20
2019-06-20T01:25:37.108Z,149.38
2019-06-20T01:28:05.784Z,146.32
2019-06-20T01:30:32.825Z,146.02
2019-06-20T01:32:59.840Z,145.97
2019-06-20T01:35:26.890Z,146.00
2019-06-20T01:37:53.925Z,147.28
2019-06-20T01:40:21.018Z,146.25
2019-06-20T01:42:48.053Z,146.77
2019-06-20T01:45:15.342Z,148.15
2019-06-20T01:47:43.720Z,145.77
2019-06-20T01:50:11.818Z,146.72
2019-06-20T01:52:38.893Z,145.95
2019-06-20T01:55:06.392Z,146.82
2019-06-20T01:57:34.544Z,147.25
2019-06-20T02:00:01.801Z,146.10
2019-06-20T02:02:33.548Z,146.25
2019-06-20T02:05:00.632Z,145.72
2019-06-20T02:07:28.910Z,144.95
2019-06-20T02:09:56.274Z,148.02
2019-06-20T02:12:24.667Z,145.28
2019-06-20T02:14:51.800Z,145.20
2019-06-20T02:17:20.250Z,145.22
2019-06-20T02:19:47.311Z,146.10
2019-06-20T02:22:14.314Z,145.28
2019-06-20T02:24:42.563Z,146.02
2019-06-20T02:27:09.600Z,146.87
2019-06-20T02:29:36.682Z,145.90
2019-06-20T02:32:03.699Z,145.85
2019-06-20T02:34:30.821Z,144.97
2019-06-20T02:36:57.848Z,145.35
2019-06-20T02:39:25.141Z,145.20
2019-06-20T02:41:52.299Z,146.25
2019-06-20T02:44:29.928Z,146.30
2019-06-20T02:46:48.314Z,146.00
2019-06-20T02:49:15.371Z,146.35
2019-06-20T02:51:42.808Z,148.30
2019-06-20T02:54:09.878Z,145.95
2019-06-20T02:56:36.908Z,145.72
2019-06-20T02:59:03.960Z,147.05
2019-06-20T03:01:31.243Z,144.50
2019-06-20T03:03:58.288Z,145.72
2019-06-20T03:06:27.266Z,147.00
2019-06-20T03:08:54.339Z,146.55
2019-06-20T03:11:21.420Z,147.70
2019-06-20T03:13:48.643Z,148.87
2019-06-20T03:16:16.615Z,150.10
2019-06-20T03:18:43.740Z,147.43
2019-06-20T03:21:10.742Z,147.98
2019-06-20T03:23:37.775Z,148.55
2019-06-20T03:26:04.832Z,146.37
2019-06-20T03:28:31.850Z,147.10
2019-06-20T03:31:00.439Z,146.72
2019-06-20T03:33:27.495Z,145.60
2019-06-20T03:35:54.570Z,147.35
2019-06-20T03:38:21.590Z,146.13
2019-06-20T03:40:48.941Z,146.75
2019-06-20T03:43:16.023Z,145.47
2019-06-20T03:45:43.039Z,147.55
2019-06-20T03:48:10.412Z,145.57
2019-06-20T03:50:37.462Z,145.65
2019-06-20T03:53:05.588Z,145.95
2019-06-20T03:55:32.950Z,145.15
2019-06-20T03:58:00.825Z,146.15
2019-06-20T04:00:31.858Z,147.90
2019-06-20T04:02:58.950Z,147.32
2019-06-20T04:05:26.033Z,147.53
2019-06-20T04:07:53.096Z,146.30
2019-06-20T04:10:20.152Z,146.53
2019-06-20T04:12:47.203Z,146.20
2019-06-20T04:15:19.005Z,145.20
2019-06-20T04:17:43.842Z,146.77
2019-06-20T04:20:11.232Z,146.13
2019-06-20T04:22:38.326Z,145.50
2019-06-20T04:25:05.953Z,147.57
2019-06-20T04:27:32.967Z,147.13
2019-06-20T04:30:00.221Z,145.72
2019-06-20T04:32:27.328Z,146.47
2019-06-20T04:34:54.402Z,145.80
2019-06-20T04:37:21.477Z,145.95
2019-06-20T04:39:48.590Z,145.38
2019-06-20T04:42:18.675Z,146.70
2019-06-20T04:44:44.519Z,146.05
2019-06-20T04:47:12.098Z,146.47
2019-06-20T04:49:39.131Z,147.20
2019-06-20T04:52:06.258Z,147.02
2019-06-20T04:54:35.081Z,146.45
2019-06-20T04:57:02.616Z,148.82
2019-06-20T04:59:33.552Z,149.07
2019-06-20T05:02:01.270Z,149.15
2019-06-20T05:04:28.479Z,149.38
2019-06-20T05:07:03.064Z,149.95
2019-06-20T05:09:30.144Z,148.13
2019-06-20T05:11:57.236Z,148.13
2019-06-20T05:14:24.387Z,148.10
2019-06-20T05:16:51.483Z,150.07
2019-06-20T05:19:18.511Z,150.18
2019-06-20T05:21:46.888Z,149.65
2019-06-20T05:24:13.994Z,150.80
2019-06-20T05:26:41.072Z,152.25
2019-06-20T05:29:08.116Z,150.70
2019-06-20T05:31:40.231Z,154.25
2019-06-20T05:34:07.283Z,154.23
2019-06-20T05:36:37.242Z,155.12
2019-06-20T05:39:05.356Z,155.07
2019-06-20T05:41:32.470Z,153.87
2019-06-20T05:44:00.736Z,152.27
2019-06-20T05:46:30.443Z,156.45
2019-06-20T05:48:57.471Z,156.10
2019-06-20T05:51:25.364Z,156.28
2019-06-20T05:53:52.377Z,155.80
2019-06-20T05:56:19.461Z,154.78
2019-06-20T05:58:46.573Z,153.18
2019-06-20T06:01:15.125Z,155.40
2019-06-20T06:03:42.162Z,153.65
2019-06-20T06:06:09.423Z,154.38
2019-06-20T06:08:38.367Z,155.87
2019-06-20T06:11:05.433Z,153.18
2019-06-20T06:13:32.532Z,154.07
2019-06-20T06:16:07.727Z,157.32
2019-06-20T06:18:40.968Z,154.53
2019-06-20T06:21:08.666Z,157.18
2019-06-20T06:23:39.383Z,154.70
2019-06-20T06:26:06.435Z,153.00
2019-06-20T06:28:33.883Z,155.05
2019-06-20T06:31:05.470Z,153.85
2019-06-20T06:33:37.071Z,154.35
2019-06-20T06:36:10.804Z,156.32
2019-06-20T06:38:45.377Z,154.90
2019-06-20T06:41:20.260Z,156.25
2019-06-20T06:43:56.422Z,156.47
2019-06-20T06:46:25.252Z,157.40
2019-06-20T06:49:01.140Z,158.65
2019-06-20T06:51:32.639Z,161.77
2019-06-20T06:54:01.933Z,159.63
2019-06-20T06:56:31.155Z,159.35
2019-06-20T06:59:02.880Z,159.22
2019-06-20T07:01:35.485Z,161.95
2019-06-20T07:04:02.555Z,160.95
2019-06-20T07:06:29.742Z,158.55
2019-06-20T07:09:08.877Z,163.60
2019-06-20T07:11:36.010Z,158.95
2019-06-20T07:14:03.419Z,160.48
2019-06-20T07:16:31.160Z,158.85
2019-06-20T07:18:59.822Z,158.90
2019-06-20T07:21:26.934Z,160.00
2019-06-20T07:23:54.009Z,160.70
2019-06-20T07:26:23.533Z,160.60
2019-06-20T07:28:57.675Z,164.62
2019-06-20T07:31:26.069Z,163.70
2019-06-20T07:33:53.193Z,161.47
2019-06-20T07:36:20.697Z,157.32
2019-06-20T07:38:47.898Z,161.35
2019-06-20T07:41:17.382Z,159.67
2019-06-20T07:43:44.592Z,155.63
2019-06-20T07:46:19.168Z,157.00
2019-06-20T07:48:48.549Z,157.52
2019-06-20T07:51:15.882Z,158.55
2019-06-20T07:53:43.283Z,154.42
2019-06-20T07:56:14.007Z,156.72
2019-06-20T07:58:41.055Z,155.80
2019-06-20T08:01:09.961Z,162.20
2019-06-20T08:03:39.533Z,155.75
2019-06-20T08:06:08.746Z,157.12
2019-06-20T08:08:35.851Z,154.63
2019-06-20T08:11:09.765Z,155.15
2019-06-20T08:13:38.113Z,153.12
2019-06-20T08:16:05.248Z,157.05
2019-06-20T08:18:33.649Z,156.43
2019-06-20T08:21:02.575Z,158.50
2019-06-20T08:23:29.870Z,158.95
2019-06-20T08:25:57.557Z,162.85
2019-06-20T08:28:26.933Z,160.55
2019-06-20T08:30:53.991Z,162.92
2019-06-20T08:33:21.285Z,163.37
2019-06-20T08:35:50.641Z,163.80
2019-06-20T08:38:18.000Z,165.68
2019-06-20T08:40:45.087Z,166.40
2019-06-20T08:43:14.335Z,163.28
2019-06-20T08:45:43.438Z,159.72
2019-06-20T08:48:10.789Z,160.93
2019-06-20T08:50:39.826Z,162.97
2019-06-20T08:53:09.775Z,162.35
2019-06-20T08:55:38.594Z,164.32
2019-06-20T08:58:13.850Z,160.05
2019-06-20T09:00:57.637Z,160.93
2019-06-20T09:03:29.881Z,163.32
2019-06-20T09:06:00.095Z,160.12
2019-06-20T09:09:02.417Z,161.37
2019-06-20T09:11:50.363Z,163.45
2019-06-20T09:14:32.693Z,162.85
2019-06-20T09:17:02.939Z,160.32
2019-06-20T09:19:31.146Z,158.00
2019-06-20T09:21:58.245Z,156.43
2019-06-20T09:24:26.261Z,163.85
2019-06-20T09:26:55.386Z,158.12
2019-06-20T09:29:23.181Z,161.18
2019-06-20T09:31:52.516Z,160.85
2019-06-20T09:34:20.650Z,161.60
2019-06-20T09:36:51.980Z,159.67
2019-06-20T09:39:19.457Z,162.12
2019-06-20T09:41:51.633Z,158.63
2019-06-20T09:44:21.407Z,158.07
2019-06-20T09:46:49.805Z,156.95
2019-06-20T09:49:33.261Z,157.57
2019-06-20T09:52:01.511Z,157.93
2019-06-20T09:54:32.464Z,154.18
2019-06-20T09:57:00.778Z,156.90
2019-06-20T09:59:28.154Z,158.27
2019-06-20T10:01:58.756Z,157.90
2019-06-20T10:04:25.984Z,160.72
2019-06-20T10:06:56.643Z,160.40
2019-06-20T10:09:54.398Z,158.52
2019-06-20T10:12:37.681Z,158.65
2019-06-20T10:15:12.258Z,156.50
2019-06-20T10:17:39.483Z,158.95
2019-06-20T10:20:06.758Z,157.65
2019-06-20T10:22:33.904Z,157.37
2019-06-20T10:25:01.131Z,162.25
2019-06-20T10:27:30.398Z,160.22
2019-06-20T10:30:13.481Z,157.93
2019-06-20T10:32:31.285Z,160.82
2019-06-20T10:34:58.602Z,157.03
2019-06-20T10:37:25.812Z,164.57
2019-06-20T10:39:52.968Z,158.85
2019-06-20T10:42:23.922Z,159.82
2019-06-20T10:44:52.191Z,163.28
2019-06-20T10:47:32.440Z,158.57
2019-06-20T10:49:50.468Z,160.70
2019-06-20T10:52:17.826Z,156.63
2019-06-20T10:54:44.935Z,159.70
2019-06-20T10:57:17.760Z,157.55
2019-06-20T10:59:46.439Z,160.43
2019-06-20T11:02:13.796Z,160.05
2019-06-20T11:04:42.287Z,158.65
2019-06-20T11:07:09.931Z,159.57
2019-06-20T11:09:36.990Z,157.15
2019-06-20T11:12:04.086Z,159.50
2019-06-20T11:14:34.185Z,160.07
2019-06-20T11:17:03.575Z,155.20
2019-06-20T11:19:32.447Z,158.15
2019-06-20T11:22:01.714Z,158.60
2019-06-20T11:24:29.627Z,157.70
2019-06-20T11:26:57.296Z,160.80
2019-06-20T11:29:24.848Z,159.27
2019-06-20T11:31:52.192Z,160.70
2019-06-20T11:34:19.735Z,165.18
2019-06-20T11:36:46.868Z,161.82
2019-06-20T11:39:14.172Z,159.57
2019-06-20T11:41:43.662Z,162.12
2019-06-20T11:44:10.751Z,159.95
2019-06-20T11:46:38.596Z,158.05
2019-06-20T11:49:05.931Z,162.22
2019-06-20T11:51:34.369Z,162.35
2019-06-20T11:54:02.299Z,165.68
2019-06-20T11:56:29.337Z,160.60
2019-06-20T11:58:56.558Z,162.00
2019-06-20T12:01:32.525Z,167.50
2019-06-20T12:03:54.337Z,161.50
2019-06-20T12:06:21.769Z,163.37
2019-06-20T12:08:49.380Z,165.12
2019-06-20T12:11:20.547Z,169.68
2019-06-20T12:13:48.547Z,165.12
2019-06-20T12:16:16.238Z,170.22
2019-06-20T12:18:43.519Z,168.40
2019-06-20T12:21:10.743Z,164.88
2019-06-20T12:23:39.534Z,164.82
2019-06-20T12:26:07.652Z,163.77
2019-06-20T12:28:34.783Z,164.13
2019-06-20T12:31:18.210Z,164.40
2019-06-20T12:33:34.833Z,163.37
2019-06-20T12:36:02.523Z,160.15
2019-06-20T12:38:30.187Z,162.90
2019-06-20T12:40:57.338Z,162.80
2019-06-20T12:43:24.558Z,159.80
2019-06-20T12:45:51.785Z,162.12
2019-06-20T12:48:20.870Z,169.68
2019-06-20T12:50:50.625Z,165.15
2019-06-20T12:53:17.702Z,166.60
2019-06-20T12:55:45.736Z,165.43
2019-06-20T12:58:17.548Z,167.28
2019-06-20T13:00:46.665Z,167.28
2019-06-20T13:03:13.940Z,167.28
2019-06-20T13:05:43.302Z,167.07
2019-06-20T13:08:13.545Z,172.15
2019-06-20T13:10:44.260Z,165.47
2019-06-20T13:13:12.512Z,169.25
2019-06-20T13:15:40.655Z,165.90
2019-06-20T13:18:08.217Z,166.50
2019-06-20T13:20:39.425Z,169.87
2019-06-20T13:23:08.328Z,168.37
2019-06-20T13:25:35.493Z,173.87
2019-06-20T13:28:03.663Z,171.65
2019-06-20T13:30:52.210Z,168.93
2019-06-20T13:33:19.426Z,166.50
2019-06-20T13:35:46.633Z,169.32
2019-06-20T13:38:13.740Z,171.10
2019-06-20T13:40:41.451Z,166.35
2019-06-20T13:43:08.674Z,166.80
2019-06-20T13:45:36.694Z,165.90
2019-06-20T13:48:08.192Z,170.00
2019-06-20T13:50:35.300Z,162.45
2019-06-20T13:53:02.385Z,166.22
2019-06-20T13:55:32.227Z,165.88
2019-06-20T13:58:00.118Z,169.50
2019-06-20T14:00:27.797Z,171.13
2019-06-20T14:03:02.458Z,168.05
2019-06-20T14:05:31.607Z,166.60
2019-06-20T14:07:58.788Z,172.60
2019-06-20T14:10:28.062Z,168.90
2019-06-20T14:12:59.309Z,174.05
2019-06-20T14:15:26.728Z,166.05
2019-06-20T14:17:53.986Z,170.28
2019-06-20T14:20:21.116Z,166.25
2019-06-20T14:22:49.490Z,164.90
2019-06-20T14:25:18.196Z,163.60
2019-06-20T14:27:45.976Z,167.37
2019-06-20T14:30:15.324Z,162.75
2019-06-20T14:32:44.820Z,160.15
2019-06-20T14:35:18.121Z,161.22
2019-06-20T14:37:47.833Z,157.93
2019-06-20T14:40:18.053Z,160.48
2019-06-20T14:42:46.010Z,159.45
2019-06-20T14:45:14.540Z,159.50
2019-06-20T14:47:41.946Z,158.97
2019-06-20T14:50:10.344Z,160.40
2019-06-20T14:52:39.772Z,163.68
2019-06-20T14:55:10.095Z,160.70
2019-06-20T14:57:40.478Z,160.48
2019-06-20T15:00:11.818Z,161.73
2019-06-20T15:02:39.230Z,156.00
2019-06-20T15:05:13.747Z,162.12
2019-06-20T15:07:40.844Z,161.95
2019-06-20T15:10:13.185Z,164.97
2019-06-20T15:12:47.867Z,163.43
2019-06-20T15:15:48.328Z,161.73
2019-06-20T15:18:23.219Z,167.37
2019-06-20T15:20:52.819Z,160.65
2019-06-20T15:23:20.700Z,163.82
2019-06-20T15:25:49.106Z,157.15
2019-06-20T15:28:18.293Z,159.87
2019-06-20T15:30:47.094Z,157.67
2019-06-20T15:33:14.543Z,160.43
2019-06-20T15:35:41.602Z,161.18
2019-06-20T15:38:09.651Z,160.55
2019-06-20T15:40:43.746Z,158.90
2019-06-20T15:43:15.215Z,160.28
2019-06-20T15:45:43.561Z,157.45
2019-06-20T15:48:12.974Z,156.43
2019-06-20T15:50:41.349Z,154.93
2019-06-20T15:53:12.436Z,154.95
2019-06-20T15:55:44.372Z,153.68
2019-06-20T15:58:16.141Z,155.20
2019-06-20T16:00:43.334Z,154.63
2019-06-20T16:03:14.361Z,155.07
2019-06-20T16:05:44.143Z,154.63
2019-06-20T16:08:15.780Z,157.00
2019-06-20T16:10:46.509Z,157.25
2019-06-20T16:13:13.602Z,155.18
2019-06-20T16:15:45.089Z,159.48
2019-06-20T16:18:17.022Z,155.35
2019-06-20T16:20:51.911Z,157.12
2019-06-20T16:23:22.257Z,155.40
2019-06-20T16:25:49.413Z,152.75
2019-06-20T16:28:16.447Z,163.10
2019-06-20T16:30:43.571Z,154.27
2019-06-20T16:33:24.052Z,154.15
2019-06-20T16:35:42.584Z,152.72
2019-06-20T16:38:09.831Z,155.32
2019-06-20T16:40:43.397Z,152.25
2019-06-20T16:43:14.904Z,151.32
2019-06-20T16:45:42.428Z,150.70
2019-06-20T16:48:10.171Z,151.37
2019-06-20T16:50:37.477Z,148.75
2019-06-20T16:53:06.011Z,152.27
2019-06-20T16:55:39.441Z,151.35
2019-06-20T16:58:08.666Z,148.65
2019-06-20T17:00:38.984Z,150.27
2019-06-20T17:03:06.603Z,150.42
2019-06-20T17:05:34.211Z,152.55
2019-06-20T17:08:05.653Z,153.47
2019-06-20T17:10:34.628Z,151.75
2019-06-20T17:13:03.263Z,153.00
2019-06-20T17:15:30.433Z,151.97
2019-06-20T17:18:00.676Z,150.97
2019-06-20T17:20:31.776Z,151.05
2019-06-20T17:23:00.991Z,151.53
2019-06-20T17:25:31.202Z,151.25
2019-06-20T17:28:04.642Z,150.70
2019-06-20T17:30:31.858Z,152.45
2019-06-20T17:32:58.983Z,151.10
2019-06-20T17:35:27.514Z,151.00
2019-06-20T17:37:54.947Z,152.82
2019-06-20T17:40:24.167Z,155.03
2019-06-20T17:42:52.660Z,157.32
2019-06-20T17:45:21.708Z,150.57
2019-06-20T17:47:49.257Z,151.63
2019-06-20T17:50:16.824Z,151.05
2019-06-20T17:52:44.090Z,150.75
2019-06-20T17:55:12.117Z,151.05
2019-06-20T17:57:39.385Z,154.00
2019-06-20T18:00:10.050Z,151.10
2019-06-20T18:02:41.274Z,152.70
2019-06-20T18:05:16.554Z,152.78
2019-06-20T18:07:46.938Z,151.50
2019-06-20T18:10:17.280Z,151.78
2019-06-20T18:12:48.709Z,153.02
2019-06-20T18:15:17.226Z,149.57
2019-06-20T18:17:48.699Z,149.20
2019-06-20T18:20:19.330Z,151.18
2019-06-20T18:22:50.819Z,151.20
2019-06-20T18:25:20.556Z,148.60
2019-06-20T18:27:47.644Z,150.95
2019-06-20T18:30:18.076Z,150.20
2019-06-20T18:32:45.508Z,150.35
2019-06-20T18:35:14.446Z,149.75
2019-06-20T18:37:41.628Z,151.60
2019-06-20T18:40:10.866Z,151.40
2019-06-20T18:42:38.010Z,150.90
2019-06-20T18:45:05.770Z,150.78
2019-06-20T18:47:33.084Z,149.23
2019-06-20T18:50:00.219Z,150.50
2019-06-20T18:52:27.390Z,150.38
2019-06-20T18:54:56.841Z,148.47
2019-06-20T18:57:25.077Z,149.53
2019-06-20T18:59:52.222Z,150.57
2019-06-20T19:02:23.162Z,152.30
2019-06-20T19:05:09.017Z,150.97
2019-06-20T19:07:37.939Z,151.27
2019-06-20T19:10:05.243Z,151.32
2019-06-20T19:12:37.211Z,151.47
2019-06-20T19:15:12.529Z,151.75
2019-06-20T19:17:43.056Z,151.75
2019-06-20T19:20:12.080Z,152.25
2019-06-20T19:22:40.443Z,149.87
2019-06-20T19:25:08.374Z,151.75
2019-06-20T19:27:45.453Z,150.05
2019-06-20T19:30:04.982Z,149.15
2019-06-20T19:32:33.238Z,150.75
2019-06-20T19:35:02.836Z,148.65
2019-06-20T19:37:31.395Z,148.80
2019-06-20T19:40:02.679Z,149.68
2019-06-20T19:42:32.193Z,149.18
2019-06-20T19:45:07.217Z,149.70
2019-06-20T19:47:37.352Z,151.10
2019-06-20T19:50:10.808Z,149.90
2019-06-20T19:52:39.830Z,151.93
2019-06-20T19:55:07.762Z,151.30
2019-06-20T19:57:41.237Z,148.82
2019-06-20T20:00:12.301Z,148.55
2019-06-20T20:02:49.543Z,148.38
2019-06-20T20:05:19.628Z,149.25
2019-06-20T20:07:49.038Z,151.12
2019-06-20T20:10:37.758Z,147.87
2019-06-20T20:13:05.278Z,149.72
2019-06-20T20:15:33.402Z,149.62
2019-06-20T20:18:05.216Z,149.53
2019-06-20T20:20:41.779Z,148.15
2019-06-20T20:23:15.462Z,149.97
2019-06-20T20:25:47.853Z,150.07
2019-06-20T20:28:15.215Z,152.43
2019-06-20T20:30:45.229Z,153.62
2019-06-20T20:33:16.178Z,148.90
2019-06-20T20:35:46.418Z,150.97
2019-06-20T20:38:18.864Z,149.68
2019-06-20T20:40:46.208Z,147.82
2019-06-20T20:43:13.611Z,148.97
2019-06-20T20:45:46.386Z,147.70
2019-06-20T20:48:16.928Z,147.15
2019-06-20T20:50:44.999Z,147.32
2019-06-20T20:53:12.591Z,147.82
2019-06-20T20:55:39.852Z,147.70
2019-06-20T20:58:06.995Z,146.68
2019-06-20T21:00:42.290Z,147.13
2019-06-20T21:03:09.373Z,147.37
2019-06-20T21:05:51.398Z,148.65
2019-06-20T21:08:14.944Z,148.10
2019-06-20T21:10:44.386Z,146.87
2019-06-20T21:13:17.413Z,146.70
2019-06-20T21:15:44.470Z,146.45
2019-06-20T21:18:11.574Z,148.25
2019-06-20T21:20:38.664Z,146.57
2019-06-20T21:23:07.464Z,147.80
2019-06-20T21:25:37.372Z,147.10
2019-06-20T21:28:08.938Z,148.85
2019-06-20T21:30:36.209Z,147.22
2019-06-20T21:33:05.086Z,147.45
2019-06-20T21:35:32.191Z,146.43
2019-06-20T21:37:59.250Z,145.90
2019-06-20T21:40:26.311Z,147.30
2019-06-20T21:42:53.608Z,146.57
2019-06-20T21:45:23.346Z,148.97
2019-06-20T21:47:50.434Z,146.20
2019-06-20T21:50:19.226Z,145.70
2019-06-20T21:52:46.737Z,148.57
2019-06-20T21:55:15.617Z,146.68
2019-06-20T21:57:43.663Z,146.40
2019-06-20T22:00:14.865Z,147.55
2019-06-20T22:02:46.386Z,147.55
2019-06-20T22:05:24.651Z,147.75
2019-06-20T22:07:51.789Z,148.65
2019-06-20T22:10:20.951Z,149.95
2019-06-20T22:12:48.045Z,150.57
2019-06-20T22:15:16.146Z,147.65
2019-06-20T22:17:45.588Z,145.22
2019-06-20T22:20:13.914Z,146.93
2019-06-20T22:22:41.101Z,145.70
2019-06-20T22:25:10.423Z,146.55
2019-06-20T22:27:39.379Z,146.57
2019-06-20T22:30:08.369Z,145.55
2019-06-20T22:32:35.473Z,146.30
2019-06-20T22:35:02.879Z,145.62
2019-06-20T22:37:30.032Z,145.68
2019-06-20T22:39:57.320Z,146.35
2019-06-20T22:42:25.543Z,145.68
2019-06-20T22:44:52.626Z,145.15
2019-06-20T22:47:19.810Z,145.28
2019-06-20T22:49:46.942Z,145.90
2019-06-20T22:52:14.010Z,146.13
2019-06-20T22:54:42.291Z,148.15
2019-06-20T22:57:09.548Z,146.50
2019-06-20T22:59:36.965Z,148.65
2019-06-20T23:02:04.026Z,146.95
2019-06-20T23:04:31.093Z,151.00
2019-06-20T23:06:58.110Z,147.68
2019-06-20T23:09:27.375Z,146.65
2019-06-20T23:11:54.309Z,146.87
2019-06-20T23:14:23.271Z,148.20
2019-06-20T23:16:50.327Z,147.62
2019-06-20T23:19:17.853Z,149.53
2019-06-20T23:21:45.575Z,149.12
2019-06-20T23:24:12.642Z,147.95
2019-06-20T23:26:39.732Z,149.20
2019-06-20T23:29:22.082Z,149.32
2019-06-20T23:31:49.727Z,148.82
2019-06-20T23:34:16.791Z,147.82
2019-06-20T23:36:43.826Z,147.90
2019-06-20T23:39:10.943Z,148.00
2019-06-20T23:41:38.015Z,148.13
2019-06-20T23:44:06.536Z,147.57
2019-06-20T23:46:33.636Z,147.98
2019-06-20T23:49:00.669Z,147.62
2019-06-20T23:51:29.596Z,148.97
2019-06-20T23:53:57.888Z,147.80
2019-06-20T23:56:24.972Z,146.85
2019-06-20T23:58:53.727Z,147.70
